createdAt,value
2022-10-22T00:00:42.904Z,12.64
2022-10-22T00:03:10.043Z,12.63
2022-10-22T00:05:37.235Z,12.61
2022-10-22T00:08:04.406Z,12.56
2022-10-22T00:10:31.626Z,12.54
2022-10-22T00:13:00.102Z,12.51
2022-10-22T00:15:27.153Z,12.51
2022-10-22T00:17:54.148Z,12.50
2022-10-22T00:20:21.366Z,12.48
2022-10-22T00:22:48.772Z,12.45
2022-10-22T00:25:16.308Z,12.45
2022-10-22T00:27:44.455Z,12.42
2022-10-22T00:30:12.199Z,12.39
2022-10-22T00:32:39.586Z,12.38
2022-10-22T00:35:07.325Z,12.53
2022-10-22T00:37:34.697Z,12.41
2022-10-22T00:40:01.890Z,12.29
2022-10-22T00:42:30.645Z,12.27
2022-10-22T00:45:04.673Z,12.26
2022-10-22T00:47:35.585Z,12.24
2022-10-22T00:50:06.337Z,12.24
2022-10-22T00:52:34.187Z,12.22
2022-10-22T00:55:01.714Z,12.22
2022-10-22T00:57:29.965Z,12.21
2022-10-22T00:59:58.224Z,12.20
2022-10-22T01:02:25.507Z,12.19
2022-10-22T01:04:52.903Z,12.23
2022-10-22T01:07:22.374Z,12.46
2022-10-22T01:10:13.382Z,12.24
2022-10-22T01:13:01.636Z,12.19
2022-10-22T01:15:49.710Z,12.15
2022-10-22T01:18:25.257Z,12.12
2022-10-22T01:20:58.256Z,12.15
2022-10-22T01:24:06.647Z,12.15
2022-10-22T01:26:58.617Z,12.14
2022-10-22T01:29:33.293Z,12.12
2022-10-22T01:32:08.666Z,12.11
2022-10-22T01:34:39.076Z,12.11
2022-10-22T01:37:08.675Z,12.11
2022-10-22T01:39:40.136Z,12.11
2022-10-22T01:42:07.314Z,12.12
2022-10-22T01:44:37.449Z,12.16
2022-10-22T01:47:48.246Z,12.15
2022-10-22T01:50:54.658Z,12.15
2022-10-22T01:53:30.686Z,12.18
2022-10-22T01:56:03.687Z,12.18
2022-10-22T01:58:59.623Z,12.22
2022-10-22T02:01:59.323Z,12.39
2022-10-22T02:04:32.606Z,12.25
2022-10-22T02:07:05.084Z,12.22
2022-10-22T02:09:34.143Z,12.22
2022-10-22T02:14:40.045Z,12.21
2022-10-22T02:17:11.540Z,12.20
2022-10-22T02:19:57.754Z,12.20
2022-10-22T02:22:26.489Z,12.19
2022-10-22T02:24:53.805Z,12.18
2022-10-22T02:27:27.478Z,12.19
2022-10-22T02:30:07.018Z,12.34
2022-10-22T02:32:42.394Z,12.42
2022-10-22T02:35:14.074Z,12.20
2022-10-22T02:37:42.030Z,12.11
2022-10-22T02:40:10.103Z,12.10
2022-10-22T02:42:41.211Z,12.07
2022-10-22T02:45:09.304Z,12.08
2022-10-22T02:47:36.445Z,12.09
2022-10-22T02:50:06.537Z,12.09
2022-10-22T02:52:36.586Z,12.08
2022-10-22T02:55:07.892Z,12.07
2022-10-22T02:57:35.394Z,12.05
2022-10-22T03:00:02.635Z,12.02
2022-10-22T03:02:29.703Z,11.99
2022-10-22T03:04:56.736Z,11.99
2022-10-22T03:07:23.764Z,11.97
2022-10-22T03:09:50.751Z,11.91
2022-10-22T03:12:17.867Z,11.88
2022-10-22T03:14:44.856Z,11.85
2022-10-22T03:17:12.013Z,11.85
2022-10-22T03:19:39.117Z,11.83
2022-10-22T03:22:11.916Z,11.77
2022-10-22T03:24:44.535Z,11.73
2022-10-22T03:27:15.298Z,11.71
2022-10-22T03:29:43.106Z,11.85
2022-10-22T03:32:10.412Z,11.69
2022-10-22T03:34:37.542Z,11.61
2022-10-22T03:37:04.719Z,11.56
2022-10-22T03:39:34.977Z,11.54
2022-10-22T03:42:02.947Z,11.53
2022-10-22T03:44:30.817Z,11.50
2022-10-22T03:47:00.266Z,11.49
2022-10-22T03:49:29.726Z,11.46
2022-10-22T03:51:57.237Z,11.45
2022-10-22T03:54:24.532Z,11.43
2022-10-22T03:56:51.525Z,11.43
2022-10-22T03:59:18.772Z,11.41
2022-10-22T04:01:45.786Z,11.42
2022-10-22T04:04:13.242Z,11.41
2022-10-22T04:06:40.205Z,11.40
2022-10-22T04:09:07.319Z,11.38
2022-10-22T04:11:34.398Z,11.37
2022-10-22T04:14:04.539Z,11.38
2022-10-22T04:16:32.929Z,11.55
2022-10-22T04:19:00.194Z,11.49
2022-10-22T04:21:27.205Z,11.36
2022-10-22T04:23:54.879Z,11.33
2022-10-22T04:26:22.059Z,11.31
2022-10-22T04:28:52.001Z,11.31
2022-10-22T04:31:21.701Z,11.27
2022-10-22T04:33:56.241Z,11.25
2022-10-22T04:36:24.612Z,11.20
2022-10-22T04:39:01.824Z,11.17
2022-10-22T04:41:37.250Z,11.13
2022-10-22T04:44:06.576Z,11.13
2022-10-22T04:46:35.361Z,11.09
2022-10-22T04:49:04.215Z,11.07
2022-10-22T04:51:31.218Z,11.04
2022-10-22T04:53:58.437Z,10.99
2022-10-22T04:56:30.687Z,10.96
2022-10-22T04:59:01.411Z,10.95
2022-10-22T05:01:40.153Z,10.94
2022-10-22T05:04:15.503Z,10.94
2022-10-22T05:06:44.852Z,10.91
2022-10-22T05:09:17.680Z,10.92
2022-10-22T05:11:49.180Z,10.89
2022-10-22T05:14:25.362Z,10.89
2022-10-22T05:16:53.766Z,10.87
2022-10-22T05:19:24.687Z,10.83
2022-10-22T05:21:57.539Z,10.80
2022-10-22T05:24:25.745Z,10.78
2022-10-22T05:26:54.629Z,10.73
2022-10-22T05:29:22.101Z,10.70
2022-10-22T05:31:49.345Z,10.66
2022-10-22T05:34:18.047Z,10.65
2022-10-22T05:36:45.711Z,10.64
2022-10-22T05:39:13.623Z,10.60
2022-10-22T05:41:40.966Z,10.58
2022-10-22T05:44:08.153Z,10.56
2022-10-22T05:46:36.372Z,10.55
2022-10-22T05:49:06.178Z,10.53
2022-10-22T05:51:35.282Z,10.52
2022-10-22T05:54:04.571Z,10.48
2022-10-22T05:56:32.370Z,10.47
2022-10-22T05:59:00.253Z,10.46
2022-10-22T06:01:32.696Z,10.47
2022-10-22T06:04:01.940Z,10.43
2022-10-22T06:06:35.555Z,10.43
2022-10-22T06:09:08.019Z,10.40
2022-10-22T06:11:35.477Z,10.39
2022-10-22T06:14:03.657Z,10.36
2022-10-22T06:16:32.351Z,10.34
2022-10-22T06:19:03.134Z,10.33
2022-10-22T06:21:31.842Z,10.32
2022-10-22T06:24:00.837Z,10.30
2022-10-22T06:26:28.688Z,10.31
2022-10-22T06:28:57.650Z,10.26
2022-10-22T06:31:26.628Z,10.25
2022-10-22T06:33:54.085Z,10.24
2022-10-22T06:36:23.528Z,10.25
2022-10-22T06:38:53.048Z,10.23
2022-10-22T06:41:22.955Z,10.23
2022-10-22T06:43:54.253Z,10.20
2022-10-22T06:46:23.005Z,10.19
2022-10-22T06:48:52.414Z,10.20
2022-10-22T06:51:21.374Z,10.22
2022-10-22T06:53:49.738Z,10.18
2022-10-22T06:56:20.204Z,10.18
2022-10-22T06:58:52.960Z,10.18
2022-10-22T07:01:23.588Z,10.19
2022-10-22T07:03:53.161Z,10.18
2022-10-22T07:06:21.886Z,10.18
2022-10-22T07:08:49.437Z,10.18
2022-10-22T07:11:19.454Z,10.20
2022-10-22T07:13:47.882Z,10.18
2022-10-22T07:16:16.863Z,10.20
2022-10-22T07:18:45.015Z,10.22
2022-10-22T07:21:13.822Z,10.28
2022-10-22T07:23:41.134Z,10.37
2022-10-22T07:26:14.785Z,10.42
2022-10-22T07:28:42.665Z,10.49
2022-10-22T07:31:11.908Z,10.57
2022-10-22T07:33:39.472Z,10.66
2022-10-22T07:36:13.075Z,10.73
2022-10-22T07:38:40.186Z,10.82
2022-10-22T07:41:07.303Z,10.89
2022-10-22T07:43:34.717Z,11.00
2022-10-22T07:46:03.036Z,11.09
2022-10-22T07:48:30.181Z,11.19
2022-10-22T07:50:58.493Z,11.27
2022-10-22T07:53:25.960Z,11.31
2022-10-22T07:55:53.516Z,11.42
2022-10-22T07:58:22.254Z,11.49
2022-10-22T08:00:51.583Z,11.53
2022-10-22T08:03:18.963Z,11.63
2022-10-22T08:05:46.425Z,11.69
2022-10-22T08:08:15.475Z,11.74
2022-10-22T08:10:44.053Z,11.82
2022-10-22T08:13:11.885Z,11.91
2022-10-22T08:15:39.261Z,11.96
2022-10-22T08:18:06.805Z,12.04
2022-10-22T08:20:33.951Z,12.13
2022-10-22T08:23:01.359Z,12.24
2022-10-22T08:25:30.601Z,12.27
2022-10-22T08:27:59.127Z,12.32
2022-10-22T08:30:27.951Z,12.40
2022-10-22T08:32:55.127Z,12.47
2022-10-22T08:35:23.195Z,12.56
2022-10-22T08:37:50.458Z,12.68
2022-10-22T08:40:33.934Z,12.95
2022-10-22T08:43:42.277Z,13.34
2022-10-22T08:46:46.520Z,13.45
2022-10-22T08:49:21.040Z,13.57
2022-10-22T08:51:48.796Z,13.61
2022-10-22T08:54:33.654Z,13.63
2022-10-22T08:57:09.770Z,13.63
2022-10-22T09:00:03.435Z,13.76
2022-10-22T09:02:47.477Z,13.77
2022-10-22T09:05:29.852Z,13.86
2022-10-22T09:07:57.822Z,14.00
2022-10-22T09:10:30.710Z,14.14
2022-10-22T09:12:58.311Z,14.40
2022-10-22T09:15:25.696Z,14.62
2022-10-22T09:18:37.584Z,14.65
2022-10-22T09:21:24.233Z,14.09
2022-10-22T09:24:27.489Z,14.09
2022-10-22T09:26:57.872Z,14.15
2022-10-22T09:29:32.795Z,14.22
2022-10-22T09:32:00.012Z,14.23
2022-10-22T09:34:29.261Z,14.45
2022-10-22T09:37:04.827Z,14.37
2022-10-22T09:39:40.247Z,14.40
2022-10-22T09:42:08.789Z,14.38
2022-10-22T09:44:37.600Z,14.25
2022-10-22T09:47:37.353Z,14.30
2022-10-22T09:50:21.820Z,14.45
2022-10-22T09:53:21.531Z,14.51
2022-10-22T09:58:28.712Z,14.91
2022-10-22T10:01:01.200Z,14.82
2022-10-22T10:03:33.244Z,15.27
2022-10-22T10:06:05.994Z,14.76
2022-10-22T10:08:33.730Z,14.67
2022-10-22T10:11:17.271Z,14.82
2022-10-22T10:13:54.415Z,14.85
2022-10-22T10:16:47.415Z,14.84
2022-10-22T10:19:32.769Z,14.84
2022-10-22T10:22:14.485Z,14.81
2022-10-22T10:25:00.305Z,14.83
2022-10-22T10:27:36.537Z,15.54
2022-10-22T10:30:21.538Z,15.13
2022-10-22T10:32:58.018Z,15.61
2022-10-22T10:35:55.391Z,15.34
2022-10-22T10:38:52.786Z,15.10
2022-10-22T10:41:37.742Z,15.70
2022-10-22T10:44:35.808Z,15.55
2022-10-22T10:47:39.153Z,15.12
2022-10-22T10:50:18.427Z,15.08
2022-10-22T10:53:14.506Z,15.12
2022-10-22T10:56:07.154Z,15.20
2022-10-22T10:59:07.763Z,15.21
2022-10-22T11:01:43.436Z,15.18
2022-10-22T11:04:27.043Z,15.50
2022-10-22T11:07:10.770Z,15.98
2022-10-22T11:09:59.731Z,15.51
2022-10-22T11:12:36.890Z,15.54
2022-10-22T11:15:25.738Z,15.64
2022-10-22T11:18:00.026Z,15.57
2022-10-22T11:20:54.024Z,15.73
2022-10-22T11:23:44.351Z,16.43
2022-10-22T11:26:22.693Z,16.08
2022-10-22T11:28:54.322Z,16.47
2022-10-22T11:31:25.686Z,16.57
2022-10-22T11:34:33.082Z,16.24
2022-10-22T11:37:01.614Z,16.26
2022-10-22T11:39:45.641Z,16.36
2022-10-22T11:42:20.660Z,16.31
2022-10-22T11:44:59.088Z,16.34
2022-10-22T11:47:29.110Z,16.35
2022-10-22T11:50:18.137Z,16.45
2022-10-22T11:53:08.624Z,16.54
2022-10-22T11:55:55.579Z,16.58
2022-10-22T11:58:30.795Z,17.27
2022-10-22T12:01:10.045Z,16.74
2022-10-22T12:03:44.097Z,17.61
2022-10-22T12:06:12.253Z,16.91
2022-10-22T12:08:51.728Z,16.90
2022-10-22T12:11:40.185Z,16.83
2022-10-22T12:14:29.746Z,16.87
2022-10-22T12:17:06.263Z,16.85
2022-10-22T12:19:41.362Z,16.81
2022-10-22T12:22:19.756Z,16.83
2022-10-22T12:24:55.147Z,16.88
2022-10-22T12:27:24.224Z,16.96
2022-10-22T12:29:56.908Z,17.09
2022-10-22T12:32:29.466Z,17.72
2022-10-22T12:34:56.754Z,17.36
2022-10-22T12:37:24.029Z,17.83
2022-10-22T12:39:51.616Z,17.82
2022-10-22T12:42:18.969Z,17.43
2022-10-22T12:44:47.699Z,17.08
2022-10-22T12:47:19.163Z,17.15
2022-10-22T12:49:49.404Z,17.15
2022-10-22T12:52:22.889Z,17.03
2022-10-22T12:54:55.793Z,17.03
2022-10-22T12:57:27.925Z,16.92
2022-10-22T13:02:32.664Z,16.92
2022-10-22T13:05:23.737Z,17.64
2022-10-22T13:08:17.468Z,17.13
2022-10-22T13:10:53.848Z,16.83
2022-10-22T13:13:32.778Z,16.77
2022-10-22T13:16:24.376Z,16.71
2022-10-22T13:18:53.118Z,16.73
2022-10-22T13:21:39.211Z,16.81
2022-10-22T13:24:24.225Z,16.91
2022-10-22T13:26:54.496Z,16.91
2022-10-22T13:29:23.797Z,16.96
2022-10-22T13:31:53.611Z,16.92
2022-10-22T13:34:24.391Z,17.57
2022-10-22T13:36:52.076Z,17.41
2022-10-22T13:39:21.375Z,17.14
2022-10-22T13:41:52.721Z,17.17
2022-10-22T13:44:20.304Z,17.28
2022-10-22T13:46:51.787Z,17.36
2022-10-22T13:49:23.621Z,17.33
2022-10-22T13:51:53.998Z,17.97
2022-10-22T13:54:24.501Z,17.68
2022-10-22T13:56:52.965Z,17.37
2022-10-22T13:59:22.909Z,17.34
2022-10-22T14:01:52.076Z,17.62
2022-10-22T14:04:23.565Z,17.92
2022-10-22T14:06:50.833Z,17.21
2022-10-22T14:09:18.957Z,16.99
2022-10-22T14:11:46.579Z,16.87
2022-10-22T14:14:17.406Z,16.79
2022-10-22T14:16:44.901Z,16.80
2022-10-22T14:19:16.918Z,16.75
2022-10-22T14:21:44.305Z,16.70
2022-10-22T14:24:13.222Z,16.68
2022-10-22T14:26:41.784Z,16.59
2022-10-22T14:29:10.301Z,17.28
2022-10-22T14:34:15.125Z,16.75
2022-10-22T14:36:44.265Z,16.73
2022-10-22T14:39:12.955Z,16.82
2022-10-22T14:41:41.471Z,16.67
2022-10-22T14:44:14.469Z,16.61
2022-10-22T14:46:44.378Z,16.48
2022-10-22T14:49:12.404Z,16.37
2022-10-22T14:51:40.035Z,16.89
2022-10-22T14:54:07.713Z,17.06
2022-10-22T14:56:34.958Z,16.59
2022-10-22T14:59:02.181Z,17.02
2022-10-22T15:01:29.698Z,17.41
2022-10-22T15:03:56.902Z,17.81
2022-10-22T15:06:24.346Z,16.91
2022-10-22T15:08:51.646Z,16.61
2022-10-22T15:11:18.949Z,16.50
2022-10-22T15:13:46.634Z,16.44
2022-10-22T15:16:15.969Z,16.39
2022-10-22T15:18:43.251Z,16.36
2022-10-22T15:21:19.724Z,16.40
2022-10-22T15:23:47.293Z,16.41
2022-10-22T15:26:14.839Z,16.39
2022-10-22T15:28:43.002Z,16.34
2022-10-22T15:31:14.316Z,16.34
2022-10-22T15:33:44.417Z,16.30
2022-10-22T15:36:14.923Z,16.26
2022-10-22T15:38:42.464Z,16.25
2022-10-22T15:41:12.715Z,16.13
2022-10-22T15:43:39.990Z,15.98
2022-10-22T15:46:14.641Z,15.92
2022-10-22T15:48:42.575Z,15.83
2022-10-22T15:51:12.205Z,15.79
2022-10-22T15:53:39.544Z,15.74
2022-10-22T15:56:06.924Z,15.66
2022-10-22T15:58:34.545Z,15.59
2022-10-22T16:01:06.767Z,15.52
2022-10-22T16:03:34.563Z,15.94
2022-10-22T16:06:01.845Z,15.97
2022-10-22T16:08:29.212Z,15.59
2022-10-22T16:10:56.639Z,15.42
2022-10-22T16:13:25.382Z,15.33
2022-10-22T16:15:53.356Z,15.25
2022-10-22T16:18:21.678Z,15.18
2022-10-22T16:20:48.796Z,15.09
2022-10-22T16:23:19.133Z,15.04
2022-10-22T16:25:47.003Z,15.02
2022-10-22T16:28:14.691Z,14.93
2022-10-22T16:30:42.287Z,15.37
2022-10-22T16:33:11.500Z,15.10
2022-10-22T16:35:43.037Z,14.88
2022-10-22T16:38:11.535Z,14.80
2022-10-22T16:40:39.206Z,14.75
2022-10-22T16:43:06.845Z,14.70
2022-10-22T16:45:34.185Z,14.65
2022-10-22T16:48:01.895Z,14.63
2022-10-22T16:50:29.420Z,14.57
2022-10-22T16:52:57.065Z,14.49
2022-10-22T16:55:24.453Z,14.44
2022-10-22T16:57:53.633Z,14.57
2022-10-22T17:00:21.437Z,14.79
2022-10-22T17:02:55.195Z,14.52
2022-10-22T17:05:22.506Z,14.40
2022-10-22T17:07:50.615Z,14.36
2022-10-22T17:12:54.440Z,14.28
2022-10-22T17:15:21.600Z,14.26
2022-10-22T17:17:52.765Z,14.22
2022-10-22T17:20:20.400Z,14.19
2022-10-22T17:22:49.690Z,14.15
2022-10-22T17:25:24.276Z,14.13
2022-10-22T17:27:54.141Z,14.09
2022-10-22T17:30:24.944Z,14.05
2022-10-22T17:32:57.611Z,14.01
2022-10-22T17:35:24.859Z,13.96
2022-10-22T17:37:52.132Z,13.91
2022-10-22T17:40:21.874Z,14.15
2022-10-22T17:42:49.766Z,14.02
2022-10-22T17:45:17.026Z,13.91
2022-10-22T17:47:44.258Z,13.86
2022-10-22T17:50:11.779Z,13.87
2022-10-22T17:52:39.349Z,13.83
2022-10-22T17:55:07.572Z,13.79
2022-10-22T17:57:34.925Z,13.73
2022-10-22T18:00:02.332Z,13.70
2022-10-22T18:02:32.815Z,13.68
2022-10-22T18:05:01.176Z,13.65
2022-10-22T18:07:28.369Z,13.60
2022-10-22T18:09:55.610Z,13.58
2022-10-22T18:12:22.937Z,13.58
2022-10-22T18:14:50.457Z,13.77
2022-10-22T18:17:17.875Z,13.67
2022-10-22T18:19:45.354Z,13.56
2022-10-22T18:22:15.435Z,13.52
2022-10-22T18:24:43.278Z,13.50
2022-10-22T18:27:10.797Z,13.46
2022-10-22T18:29:38.472Z,13.43
2022-10-22T18:32:12.132Z,13.41
2022-10-22T18:34:40.521Z,13.37
2022-10-22T18:37:07.815Z,13.37
2022-10-22T18:39:35.706Z,13.38
2022-10-22T18:42:06.430Z,13.35
2022-10-22T18:44:35.300Z,13.35
2022-10-22T18:47:02.623Z,13.32
2022-10-22T18:49:30.652Z,13.31
2022-10-22T18:52:00.763Z,13.47
2022-10-22T18:54:27.933Z,13.50
2022-10-22T18:56:59.459Z,13.38
2022-10-22T18:59:29.276Z,13.35
2022-10-22T19:01:59.665Z,13.34
2022-10-22T19:04:37.145Z,13.33
2022-10-22T19:07:06.161Z,13.35
2022-10-22T19:09:33.551Z,13.32
2022-10-22T19:12:01.870Z,13.33
2022-10-22T19:14:29.244Z,13.34
2022-10-22T19:16:56.559Z,13.36
2022-10-22T19:19:24.620Z,13.34
2022-10-22T19:21:51.910Z,13.31
2022-10-22T19:24:20.711Z,13.30
2022-10-22T19:26:49.576Z,13.27
2022-10-22T19:29:19.370Z,13.41
2022-10-22T19:31:47.764Z,13.49
2022-10-22T19:34:15.104Z,13.32
2022-10-22T19:36:42.375Z,13.27
2022-10-22T19:39:09.750Z,13.25
2022-10-22T19:41:38.224Z,13.25
2022-10-22T19:44:08.216Z,13.27
2022-10-22T19:46:35.566Z,13.29
2022-10-22T19:49:04.099Z,13.28
2022-10-22T19:51:33.983Z,13.32
2022-10-22T19:54:07.049Z,13.33
2022-10-22T19:56:36.055Z,13.32
2022-10-22T19:59:04.451Z,13.36
2022-10-22T20:01:32.277Z,13.31
2022-10-22T20:04:00.375Z,13.29
2022-10-22T20:06:27.865Z,13.47
2022-10-22T20:08:56.228Z,13.48
2022-10-22T20:11:27.587Z,13.37
2022-10-22T20:13:56.793Z,13.32
2022-10-22T20:16:27.345Z,13.30
2022-10-22T20:18:54.665Z,13.31
2022-10-22T20:21:22.409Z,13.30
2022-10-22T20:23:53.326Z,13.31
2022-10-22T20:26:23.601Z,13.28
2022-10-22T20:28:52.428Z,13.25
2022-10-22T20:31:22.010Z,13.26
2022-10-22T20:33:50.912Z,13.24
2022-10-22T20:36:22.596Z,13.26
2022-10-22T20:38:51.100Z,13.26
2022-10-22T20:41:23.315Z,13.27
2022-10-22T20:43:51.687Z,13.43
2022-10-22T20:46:27.672Z,13.36
2022-10-22T20:48:58.768Z,13.27
2022-10-22T20:51:26.143Z,13.25
2022-10-22T20:53:53.417Z,13.21
2022-10-22T20:56:23.913Z,13.20
2022-10-22T20:58:54.194Z,13.20
2022-10-22T21:01:24.266Z,13.18
2022-10-22T21:03:53.475Z,13.17
2022-10-22T21:06:23.366Z,13.17
2022-10-22T21:08:51.987Z,13.17
2022-10-22T21:11:20.824Z,13.14
2022-10-22T21:13:51.383Z,13.14
2022-10-22T21:16:19.913Z,13.15
2022-10-22T21:18:47.811Z,13.15
2022-10-22T21:21:17.284Z,13.34
2022-10-22T21:23:44.588Z,13.26
2022-10-22T21:26:12.808Z,13.18
2022-10-22T21:28:40.008Z,13.14
2022-10-22T21:31:10.996Z,13.13
2022-10-22T21:33:40.165Z,13.16
2022-10-22T21:36:09.255Z,13.13
2022-10-22T21:38:37.826Z,13.12
2022-10-22T21:41:14.124Z,13.13
2022-10-22T21:43:42.618Z,13.12
2022-10-22T21:46:13.330Z,13.13
2022-10-22T21:48:43.176Z,13.11
2022-10-22T21:51:15.187Z,13.08
2022-10-22T21:53:43.050Z,13.06
2022-10-22T21:56:22.376Z,13.26
2022-10-22T21:58:49.795Z,13.34
2022-10-22T22:01:17.990Z,13.16
2022-10-22T22:03:48.374Z,13.11
2022-10-22T22:06:21.111Z,13.05
2022-10-22T22:08:49.949Z,13.03
2022-10-22T22:11:20.307Z,13.01
2022-10-22T22:13:48.952Z,12.99
2022-10-22T22:16:27.099Z,12.99
2022-10-22T22:19:02.166Z,12.99
2022-10-22T22:21:30.121Z,12.96
2022-10-22T22:23:58.472Z,12.93
2022-10-22T22:26:29.814Z,12.89
2022-10-22T22:28:59.721Z,12.84
2022-10-22T22:31:30.083Z,12.81
2022-10-22T22:34:12.938Z,12.80
2022-10-22T22:36:48.149Z,13.45
2022-10-22T22:39:18.308Z,13.26
2022-10-22T22:41:49.162Z,12.95
2022-10-22T22:44:16.565Z,12.81
2022-10-22T22:46:45.075Z,12.75
2022-10-22T22:49:13.640Z,12.72
2022-10-22T22:51:40.895Z,12.69
2022-10-22T22:54:08.197Z,12.65
2022-10-22T22:56:36.271Z,12.62
2022-10-22T22:59:12.786Z,12.57
2022-10-22T23:01:40.277Z,12.54
2022-10-22T23:04:16.396Z,12.51
2022-10-22T23:06:43.674Z,12.47
2022-10-22T23:09:13.511Z,12.47
2022-10-22T23:11:42.824Z,12.50
2022-10-22T23:14:13.932Z,12.52
2022-10-22T23:16:45.672Z,12.52
2022-10-22T23:19:18.569Z,12.52
2022-10-22T23:21:51.636Z,12.81
2022-10-22T23:24:22.858Z,12.78
2022-10-22T23:26:52.455Z,12.64
2022-10-22T23:29:28.037Z,12.61
2022-10-22T23:31:59.720Z,12.57
2022-10-22T23:34:28.122Z,12.53
2022-10-22T23:36:56.185Z,12.51
2022-10-22T23:39:26.684Z,12.47
2022-10-22T23:41:54.784Z,12.48
2022-10-22T23:44:23.258Z,12.44
2022-10-22T23:46:51.208Z,12.43
2022-10-22T23:49:18.804Z,12.41
2022-10-22T23:51:46.145Z,12.41
2022-10-22T23:54:15.532Z,12.42
2022-10-22T23:56:43.152Z,12.40
2022-10-22T23:59:11.503Z,13.22
